Time;durP1;ratioP1;P1;durP2;ratioP2;P2;SDS_P1;SDS_P2;PMS_P1;PMS_P2;Temp;Humidity;BMP_temperature;BMP_pressure;BME280_temperature;BME280_humidity;BME280_pressure;Samples;Min_cycle;Max_cycle;Signal;HPM_P1;HPM_P2
2022/04/18 00:01:18;;;;;;;4.57;3.25;;;2.50;99.90;;;;;;5033623;28;20506;-35
2022/04/18 00:03:45;;;;;;;5.68;3.92;;;2.50;99.90;;;;;;5034818;28;20029;-36
2022/04/18 00:06:10;;;;;;;4.75;3.38;;;2.50;99.90;;;;;;5042572;28;20044;-39
2022/04/18 00:08:36;;;;;;;5.38;3.65;;;2.50;99.90;;;;;;5037415;28;20020;-37
2022/04/18 00:11:02;;;;;;;4.43;3.83;;;2.50;99.90;;;;;;5038286;28;20025;-39
2022/04/18 00:13:28;;;;;;;3.80;3.50;;;2.50;99.90;;;;;;5037064;28;20453;-38
2022/04/18 00:15:54;;;;;;;5.72;3.95;;;2.50;99.90;;;;;;5038133;28;20056;-39
2022/04/18 00:18:19;;;;;;;4.45;3.72;;;2.50;99.90;;;;;;5036544;28;20061;-39
2022/04/18 00:20:45;;;;;;;5.13;3.63;;;2.60;99.90;;;;;;5040142;28;20670;-37
2022/04/18 00:23:10;;;;;;;4.75;3.53;;;2.50;99.90;;;;;;5040310;28;20159;-39
2022/04/18 00:25:36;;;;;;;5.80;3.45;;;2.50;99.90;;;;;;5034124;28;20056;-37
2022/04/18 00:28:02;;;;;;;5.03;3.08;;;2.50;99.90;;;;;;5036894;28;20035;-36
2022/04/18 00:30:27;;;;;;;6.07;3.50;;;2.40;99.90;;;;;;5033196;28;20048;-39
2022/04/18 00:32:53;;;;;;;4.63;3.70;;;2.30;99.90;;;;;;5035057;28;20112;-39
2022/04/18 00:35:18;;;;;;;7.63;4.18;;;2.30;99.90;;;;;;5038317;28;20035;-39
2022/04/18 00:37:44;;;;;;;5.35;3.83;;;2.30;99.90;;;;;;5035554;28;20100;-36
2022/04/18 00:40:11;;;;;;;5.80;3.67;;;2.20;99.90;;;;;;5035915;28;20044;-35
2022/04/18 00:42:41;;;;;;;4.95;3.92;;;2.20;99.90;;;;;;5039294;28;20475;-37
2022/04/18 00:45:07;;;;;;;3.95;3.55;;;2.10;99.90;;;;;;5039996;28;20029;-38
2022/04/18 00:47:32;;;;;;;6.43;3.80;;;2.00;99.90;;;;;;5035609;28;20029;-37
2022/04/18 00:49:58;;;;;;;4.60;3.95;;;2.00;99.90;;;;;;5037684;28;20083;-38
2022/04/18 00:52:26;;;;;;;6.70;4.40;;;1.90;99.90;;;;;;5039395;28;20043;-38
2022/04/18 00:54:54;;;;;;;8.88;4.43;;;1.70;99.90;;;;;;5034165;28;20048;-38
2022/04/18 00:57:21;;;;;;;5.05;3.92;;;1.80;99.90;;;;;;5036227;28;21984;-39
2022/04/18 00:59:47;;;;;;;5.25;3.63;;;1.90;99.90;;;;;;5038248;28;20028;-38
2022/04/18 01:02:14;;;;;;;4.28;3.65;;;1.90;99.90;;;;;;5037880;28;20045;-31
2022/04/18 01:04:40;;;;;;;4.38;3.78;;;2.00;99.90;;;;;;5040499;28;20397;-32
2022/04/18 01:07:06;;;;;;;5.65;3.65;;;1.90;99.90;;;;;;5045655;28;20033;-32
2022/04/18 01:09:33;;;;;;;5.90;4.70;;;1.90;99.90;;;;;;5039849;28;20032;-32
2022/04/18 01:11:59;;;;;;;6.15;3.65;;;1.90;99.90;;;;;;5037214;28;20465;-32
2022/04/18 01:14:24;;;;;;;6.03;4.38;;;1.80;99.90;;;;;;5038421;28;20027;-32
2022/04/18 01:16:50;;;;;;;5.35;3.88;;;1.80;99.90;;;;;;5037211;28;20442;-32
2022/04/18 01:19:16;;;;;;;7.18;4.10;;;1.80;99.90;;;;;;5037087;28;20394;-31
2022/04/18 01:21:42;;;;;;;6.43;4.22;;;1.80;99.90;;;;;;5038339;28;20025;-31
2022/04/18 01:29:36;;;;;;;5.40;4.30;;;1.50;99.90;;;;;;5038239;28;20497;-32
2022/04/18 01:32:03;;;;;;;4.85;4.10;;;1.50;99.90;;;;;;5035105;28;20052;-33
2022/04/18 01:34:29;;;;;;;5.50;4.05;;;1.60;99.90;;;;;;5034766;28;20025;-32
2022/04/18 01:36:54;;;;;;;4.97;4.18;;;1.70;99.90;;;;;;5032016;28;20032;-32
2022/04/18 01:39:20;;;;;;;4.65;3.55;;;1.70;99.90;;;;;;5037239;28;20542;-31
2022/04/18 01:41:46;;;;;;;6.50;4.55;;;1.70;99.90;;;;;;5040273;28;20036;-31
2022/04/18 01:44:12;;;;;;;4.22;3.55;;;1.70;99.90;;;;;;5036018;28;20034;-32
2022/04/18 01:46:37;;;;;;;5.13;4.10;;;1.50;99.90;;;;;;5036278;28;20127;-31
2022/04/18 01:49:03;;;;;;;6.40;4.32;;;1.50;99.90;;;;;;5033278;28;20571;-32
2022/04/18 01:51:29;;;;;;;6.28;4.45;;;1.50;99.90;;;;;;5041287;28;21310;-31
2022/04/18 01:53:54;;;;;;;4.95;4.00;;;1.40;99.90;;;;;;5035039;28;20036;-31
2022/04/18 01:56:20;;;;;;;7.65;4.68;;;1.40;99.90;;;;;;5037711;28;20029;-31
2022/04/18 01:58:46;;;;;;;7.50;4.72;;;1.50;99.90;;;;;;5038652;28;20083;-32
2022/04/18 02:01:11;;;;;;;5.65;4.93;;;1.50;99.90;;;;;;5042206;28;20118;-32
2022/04/18 02:03:42;;;;;;;6.65;5.18;;;1.60;99.90;;;;;;5038499;28;20048;-32
2022/04/18 02:06:08;;;;;;;7.30;4.30;;;1.50;99.90;;;;;;5038850;28;20165;-32
2022/04/18 02:08:35;;;;;;;6.63;4.53;;;1.50;99.90;;;;;;5039920;28;20100;-32
2022/04/18 02:11:01;;;;;;;4.40;4.00;;;1.20;99.90;;;;;;5041983;28;20082;-32
2022/04/18 02:13:28;;;;;;;5.80;4.30;;;1.00;99.90;;;;;;5038403;28;20017;-32
2022/04/18 02:15:57;;;;;;;6.45;3.90;;;1.00;99.90;;;;;;5034993;28;20048;-32
2022/04/18 02:18:23;;;;;;;4.57;4.03;;;0.80;99.90;;;;;;5037482;28;20071;-32
2022/04/18 02:20:49;;;;;;;5.80;4.75;;;0.70;99.90;;;;;;5040374;28;20602;-31
2022/04/18 02:23:14;;;;;;;4.63;3.72;;;0.70;99.90;;;;;;5040008;28;20098;-32
2022/04/18 02:25:40;;;;;;;4.55;4.15;;;0.70;99.90;;;;;;5037799;28;20120;-31
2022/04/18 02:28:07;;;;;;;5.25;4.28;;;0.80;99.90;;;;;;5039936;28;20044;-31
2022/04/18 02:30:33;;;;;;;5.30;4.07;;;0.70;99.90;;;;;;5039104;28;20044;-33
2022/04/18 02:32:59;;;;;;;4.93;3.20;;;0.80;99.90;;;;;;5037996;28;20037;-32
2022/04/18 02:35:26;;;;;;;4.63;4.07;;;0.90;99.90;;;;;;5040046;28;20367;-32
2022/04/18 02:37:53;;;;;;;4.82;3.80;;;1.00;99.90;;;;;;5038673;28;20025;-32
2022/04/18 02:40:20;;;;;;;4.00;3.53;;;1.00;99.90;;;;;;5040099;28;20112;-32
2022/04/18 02:42:46;;;;;;;5.75;3.97;;;1.00;99.90;;;;;;5045182;28;20406;-32
2022/04/18 02:45:14;;;;;;;4.18;3.72;;;1.10;99.90;;;;;;5035403;28;20170;-32
2022/04/18 02:47:40;;;;;;;4.60;3.93;;;1.10;99.90;;;;;;5036489;28;20033;-31
2022/04/18 02:50:07;;;;;;;4.38;3.97;;;1.00;99.90;;;;;;5040099;28;20509;-32
2022/04/18 02:52:33;;;;;;;8.27;4.65;;;0.90;99.90;;;;;;5042565;28;20116;-32
2022/04/18 02:54:59;;;;;;;6.22;4.63;;;0.90;99.90;;;;;;5040537;28;20148;-32
2022/04/18 02:57:25;;;;;;;7.18;4.60;;;0.90;99.90;;;;;;5038327;28;20441;-32
2022/04/18 02:59:50;;;;;;;5.93;4.57;;;1.00;99.90;;;;;;5039261;28;20021;-33
2022/04/18 03:02:16;;;;;;;5.65;4.18;;;1.00;99.90;;;;;;5039648;28;20037;-31
2022/04/18 03:04:42;;;;;;;7.65;3.90;;;1.10;99.90;;;;;;5036732;28;20508;-31
2022/04/18 03:07:07;;;;;;;4.43;3.85;;;1.10;99.90;;;;;;5039545;28;20058;-31
2022/04/18 03:09:33;;;;;;;3.67;3.38;;;1.00;99.90;;;;;;5037997;28;20028;-31
2022/04/18 03:11:59;;;;;;;4.82;3.80;;;1.10;99.90;;;;;;5041694;28;20070;-31
2022/04/18 03:14:25;;;;;;;6.35;3.97;;;1.00;99.90;;;;;;5041560;28;20021;-31
2022/04/18 03:16:50;;;;;;;4.82;3.67;;;1.00;99.90;;;;;;5035181;28;20098;-32
2022/04/18 03:19:16;;;;;;;4.32;3.53;;;0.90;99.90;;;;;;5038795;28;20033;-32
2022/04/18 03:21:42;;;;;;;5.57;4.43;;;0.90;99.90;;;;;;5037888;28;20021;-31
2022/04/18 03:24:08;;;;;;;4.88;4.20;;;0.90;99.90;;;;;;5036678;28;20032;-31
2022/04/18 03:26:34;;;;;;;4.15;3.60;;;0.80;99.90;;;;;;5040788;28;20033;-32
2022/04/18 03:29:00;;;;;;;4.05;3.70;;;0.80;99.90;;;;;;5040059;28;20028;-32
2022/04/18 03:31:26;;;;;;;3.92;3.13;;;0.70;99.90;;;;;;5039287;28;20045;-31
2022/04/18 03:33:52;;;;;;;3.17;2.90;;;0.60;99.90;;;;;;5035784;28;20629;-31
2022/04/18 03:41:46;;;;;;;3.03;2.72;;;0.20;99.90;;;;;;5037043;28;20284;-32
2022/04/18 03:44:12;;;;;;;3.20;2.97;;;0.10;99.90;;;;;;5041863;28;20033;-31
2022/04/18 03:46:38;;;;;;;4.13;3.72;;;0.20;99.90;;;;;;5041768;28;20040;-31
2022/04/18 03:49:04;;;;;;;6.53;4.72;;;0.30;99.90;;;;;;5037358;28;20025;-32
2022/04/18 03:51:29;;;;;;;6.43;3.80;;;0.20;99.90;;;;;;5038247;28;20036;-31
2022/04/18 03:53:55;;;;;;;4.38;3.97;;;0.20;99.90;;;;;;5040908;28;20064;-31
2022/04/18 03:56:21;;;;;;;4.18;3.60;;;0.20;99.90;;;;;;5039433;28;20071;-31
2022/04/18 03:58:47;;;;;;;5.50;4.22;;;0.20;99.90;;;;;;5035996;28;20803;-31
2022/04/18 04:01:13;;;;;;;6.07;4.25;;;0.30;99.90;;;;;;5033949;28;20033;-32
2022/04/18 04:03:38;;;;;;;7.25;3.97;;;0.30;99.90;;;;;;5038836;28;20443;-31
2022/04/18 04:06:04;;;;;;;5.68;4.22;;;0.50;99.90;;;;;;5038745;28;20036;-32
2022/04/18 04:08:31;;;;;;;3.05;2.85;;;0.50;99.90;;;;;;5037046;28;20021;-32
2022/04/18 04:10:57;;;;;;;5.15;3.47;;;0.30;99.90;;;;;;5037950;28;20065;-32
2022/04/18 04:13:23;;;;;;;4.35;3.42;;;0.20;99.90;;;;;;5039538;28;20120;-32
2022/04/18 04:15:49;;;;;;;4.63;3.53;;;0.20;99.90;;;;;;5037682;28;20509;-32
2022/04/18 04:18:14;;;;;;;3.88;3.40;;;0.30;99.90;;;;;;5035085;28;20025;-32
2022/04/18 04:20:40;;;;;;;4.88;3.97;;;0.40;99.90;;;;;;5035788;28;20032;-31
2022/04/18 04:23:06;;;;;;;6.43;3.50;;;0.40;99.90;;;;;;5038517;28;20155;-32
2022/04/18 04:25:31;;;;;;;3.95;3.38;;;0.40;99.90;;;;;;5036258;28;20044;-31
2022/04/18 04:27:57;;;;;;;5.28;3.08;;;0.50;99.90;;;;;;5037813;28;20026;-31
2022/04/18 04:30:23;;;;;;;4.18;3.30;;;0.40;99.90;;;;;;5038904;28;20094;-31
2022/04/18 04:32:50;;;;;;;4.97;3.17;;;0.40;99.90;;;;;;5036475;28;20572;-31
2022/04/18 04:35:17;;;;;;;5.00;3.38;;;0.40;99.90;;;;;;5035059;28;20501;-32
2022/04/18 04:37:42;;;;;;;3.30;3.03;;;0.20;99.90;;;;;;5036780;28;20094;-32
2022/04/18 04:40:09;;;;;;;4.07;3.63;;;0.30;99.90;;;;;;5035022;28;20029;-32
2022/04/18 04:42:35;;;;;;;4.20;3.22;;;0.20;99.90;;;;;;5037747;28;20155;-32
2022/04/18 04:45:00;;;;;;;4.45;3.58;;;0.30;99.90;;;;;;5037517;28;20086;-33
2022/04/18 04:47:26;;;;;;;3.70;3.40;;;0.40;99.90;;;;;;5031602;28;20017;-32
2022/04/18 04:49:52;;;;;;;6.63;3.25;;;0.30;99.90;;;;;;5035790;28;21637;-31
2022/04/18 04:52:19;;;;;;;5.57;4.13;;;0.40;99.90;;;;;;5035018;28;20494;-32
2022/04/18 04:54:44;;;;;;;6.05;3.47;;;0.50;99.90;;;;;;5041497;28;20120;-32
2022/04/18 04:57:10;;;;;;;5.82;4.38;;;0.60;99.90;;;;;;5039149;28;20555;-31
2022/04/18 04:59:35;;;;;;;4.57;3.72;;;0.60;99.90;;;;;;5036552;28;20063;-32
2022/04/18 05:02:01;;;;;;;6.10;3.38;;;0.60;99.90;;;;;;5036837;28;20123;-31
2022/04/18 05:04:27;;;;;;;4.80;3.03;;;0.60;99.90;;;;;;5033489;28;20537;-32
2022/04/18 05:06:53;;;;;;;4.25;3.83;;;0.70;99.90;;;;;;5033024;28;20033;-32
2022/04/18 05:09:19;;;;;;;7.03;3.53;;;0.70;99.90;;;;;;5041133;28;20044;-32
2022/04/18 05:11:46;;;;;;;3.95;3.20;;;0.70;99.90;;;;;;5033591;28;21480;-31
2022/04/18 05:14:14;;;;;;;3.80;3.50;;;0.70;99.90;;;;;;5040684;28;20021;-31
2022/04/18 05:16:40;;;;;;;6.65;3.90;;;0.70;99.90;;;;;;5036684;28;20478;-31
2022/04/18 05:19:06;;;;;;;5.05;4.18;;;0.90;99.90;;;;;;5032999;28;20044;-32
2022/04/18 05:21:32;;;;;;;7.13;4.22;;;1.00;99.90;;;;;;5034729;28;20040;-31
2022/04/18 05:23:58;;;;;;;5.05;4.07;;;1.10;99.90;;;;;;5035602;28;20029;-31
2022/04/18 05:26:23;;;;;;;4.78;3.72;;;1.20;99.90;;;;;;5036135;28;20025;-32
2022/04/18 05:28:49;;;;;;;5.25;4.07;;;1.40;99.90;;;;;;5039091;28;20029;-31
2022/04/18 05:31:17;;;;;;;4.20;3.80;;;1.50;99.90;;;;;;5036003;28;20132;-31
2022/04/18 05:33:43;;;;;;;5.27;3.63;;;1.50;99.90;;;;;;5039856;28;20028;-31
2022/04/18 05:36:09;;;;;;;4.78;3.45;;;1.50;99.90;;;;;;5041745;28;20021;-31
2022/04/18 05:38:35;;;;;;;4.03;3.28;;;1.50;99.90;;;;;;5037191;28;20083;-31
2022/04/18 05:41:01;;;;;;;4.60;3.67;;;1.60;99.90;;;;;;5035349;28;20029;-33
2022/04/18 05:43:28;;;;;;;6.72;5.43;;;1.70;99.90;;;;;;5040220;28;20033;-32
2022/04/18 05:45:53;;;;;;;4.53;3.95;;;1.70;99.90;;;;;;5041788;28;20037;-32
2022/04/18 05:48:19;;;;;;;7.07;4.20;;;1.70;99.90;;;;;;5035169;28;20738;-32
2022/04/18 05:50:45;;;;;;;6.88;4.20;;;1.80;99.90;;;;;;5037391;28;20490;-32
2022/04/18 05:53:14;;;;;;;6.90;4.32;;;1.90;99.90;;;;;;5035975;28;20518;-33
2022/04/18 05:55:40;;;;;;;5.97;3.85;;;2.00;99.90;;;;;;5038471;28;20037;-31
2022/04/18 05:58:06;;;;;;;4.65;3.75;;;2.20;99.90;;;;;;5040123;28;20478;-32
2022/04/18 06:00:32;;;;;;;5.55;4.47;;;2.40;99.90;;;;;;5034509;28;20119;-31
2022/04/18 06:02:59;;;;;;;7.00;4.65;;;2.50;99.90;;;;;;5036812;28;20053;-31
2022/04/18 06:05:24;;;;;;;8.45;4.68;;;2.50;99.90;;;;;;5041214;28;20025;-31
2022/04/18 06:07:50;;;;;;;6.15;4.18;;;2.60;99.90;;;;;;5037847;28;20067;-31
2022/04/18 06:10:16;;;;;;;6.65;4.50;;;2.70;99.90;;;;;;5037790;28;20033;-32
2022/04/18 06:12:41;;;;;;;7.80;4.80;;;2.80;99.90;;;;;;5038408;28;20082;-31
2022/04/18 06:15:07;;;;;;;5.90;4.53;;;3.00;99.90;;;;;;5035981;28;20479;-31
2022/04/18 06:17:34;;;;;;;8.15;5.07;;;3.20;99.90;;;;;;5040129;28;21668;-31
2022/04/18 06:20:00;;;;;;;7.18;5.28;;;3.40;99.90;;;;;;5035994;28;20566;-31
2022/04/18 06:22:26;;;;;;;7.50;4.53;;;3.60;99.90;;;;;;5037506;28;21655;-32
2022/04/18 06:24:52;;;;;;;4.60;3.97;;;3.80;99.90;;;;;;5038155;28;20025;-32
2022/04/18 06:27:17;;;;;;;6.95;5.15;;;4.00;99.90;;;;;;5038403;28;20033;-31
2022/04/18 06:29:43;;;;;;;7.15;4.78;;;4.20;99.90;;;;;;5038650;28;21536;-32
2022/04/18 06:32:09;;;;;;;6.60;4.57;;;4.40;99.90;;;;;;5040193;28;20044;-32
2022/04/18 06:34:35;;;;;;;10.75;5.38;;;4.60;99.90;;;;;;5035318;28;20552;-33
2022/04/18 06:37:01;;;;;;;8.57;5.07;;;4.70;99.90;;;;;;5037739;28;20025;-32
2022/04/18 06:39:27;;;;;;;8.48;4.80;;;4.90;99.90;;;;;;5038658;28;20116;-32
2022/04/18 06:41:55;;;;;;;9.48;4.68;;;5.00;99.90;;;;;;5037106;28;20036;-32
2022/04/18 06:44:21;;;;;;;8.07;4.95;;;5.20;99.90;;;;;;5039342;28;20033;-31
2022/04/18 06:46:46;;;;;;;11.50;4.53;;;5.50;99.90;;;;;;5041590;28;20047;-32
2022/04/18 06:49:12;;;;;;;5.40;4.13;;;5.80;99.90;;;;;;5038549;28;20037;-32
2022/04/18 06:51:37;;;;;;;6.40;4.82;;;6.00;97.90;;;;;;5032405;28;20055;-32
2022/04/18 06:54:03;;;;;;;6.30;4.47;;;6.10;99.90;;;;;;5034217;28;20681;-32
2022/04/18 06:59:13;;;;;;;4.63;3.83;;;6.30;99.40;;;;;;5039280;28;20801;-32
2022/04/18 07:01:39;;;;;;;6.18;4.18;;;6.40;92.00;;;;;;5034050;28;20036;-32
2022/04/18 07:04:06;;;;;;;5.43;4.45;;;6.50;96.20;;;;;;5035689;28;20032;-32
2022/04/18 07:06:33;;;;;;;8.20;4.55;;;6.60;92.20;;;;;;5032434;28;20029;-33
2022/04/18 07:08:58;;;;;;;6.15;4.20;;;6.60;92.90;;;;;;5034047;28;20124;-32
2022/04/18 07:11:24;;;;;;;6.93;4.40;;;6.80;93.80;;;;;;5033436;28;20067;-33
2022/04/18 07:13:49;;;;;;;4.90;4.28;;;7.00;90.30;;;;;;5034134;28;20029;-32
2022/04/18 07:16:15;;;;;;;4.05;3.65;;;7.10;91.90;;;;;;5039891;28;20469;-32
2022/04/18 07:18:41;;;;;;;5.68;3.80;;;7.20;90.40;;;;;;5035804;28;20095;-32
2022/04/18 07:21:06;;;;;;;5.45;4.20;;;7.30;90.30;;;;;;5032037;28;20029;-33
2022/04/18 07:23:32;;;;;;;5.53;4.00;;;7.40;87.40;;;;;;5033820;28;20029;-32
2022/04/18 07:25:58;;;;;;;6.07;4.63;;;7.40;89.50;;;;;;5031732;28;20500;-33
2022/04/18 07:28:23;;;;;;;5.03;4.38;;;7.50;90.20;;;;;;5037051;28;20072;-32
2022/04/18 07:30:49;;;;;;;9.15;4.00;;;7.50;90.00;;;;;;5035689;28;20045;-33
2022/04/18 07:33:15;;;;;;;6.15;4.28;;;7.70;85.10;;;;;;5035734;28;20755;-33
2022/04/18 07:35:42;;;;;;;8.10;4.03;;;7.90;90.20;;;;;;5037888;28;20056;-39
2022/04/18 07:40:53;;;;;;;6.95;4.20;;;7.80;78.60;;;;;;5033546;28;20075;-33
2022/04/18 07:43:19;;;;;;;5.22;4.10;;;7.90;75.00;;;;;;5031056;28;20032;-32
2022/04/18 07:45:45;;;;;;;6.28;4.13;;;7.90;72.80;;;;;;5036026;28;20036;-32
2022/04/18 07:48:10;;;;;;;7.57;3.90;;;8.10;78.10;;;;;;5036841;28;20036;-32
2022/04/18 07:53:21;;;;;;;4.07;3.17;;;8.50;70.80;;;;;;5037966;28;20074;-33
2022/04/18 07:55:47;;;;;;;4.63;3.47;;;8.50;72.30;;;;;;5037235;28;20032;-32
2022/04/18 07:58:12;;;;;;;6.55;3.30;;;8.70;66.00;;;;;;5037995;28;20028;-33
2022/04/18 08:00:38;;;;;;;4.13;3.45;;;9.00;66.80;;;;;;5034146;28;20036;-33
2022/04/18 08:03:04;;;;;;;5.65;3.47;;;9.00;63.20;;;;;;5033490;28;20974;-32
2022/04/18 08:05:29;;;;;;;2.63;2.42;;;8.90;69.20;;;;;;5031423;28;20102;-32
2022/04/18 08:07:55;;;;;;;3.78;3.20;;;9.00;62.80;;;;;;5038039;28;20063;-32
2022/04/18 08:10:21;;;;;;;7.90;3.13;;;9.00;66.00;;;;;;5037604;28;20083;-32
2022/04/18 08:12:46;;;;;;;4.32;3.63;;;9.10;63.90;;;;;;5036770;28;20043;-32
2022/04/18 08:15:12;;;;;;;4.55;3.35;;;9.30;63.90;;;;;;5035935;28;20021;-33
2022/04/18 08:17:37;;;;;;;5.70;3.08;;;9.40;71.80;;;;;;5032858;28;20087;-33
2022/04/18 08:20:03;;;;;;;6.25;3.20;;;9.60;56.90;;;;;;5033242;28;20021;-34
2022/04/18 08:22:29;;;;;;;4.05;2.70;;;9.60;58.00;;;;;;5036446;28;20147;-33
2022/04/18 08:24:55;;;;;;;4.88;3.45;;;9.70;61.80;;;;;;5034104;28;20032;-33
2022/04/18 08:27:20;;;;;;;5.57;3.13;;;9.70;59.40;;;;;;5035221;28;20478;-34
2022/04/18 08:29:46;;;;;;;2.17;1.98;;;9.90;58.10;;;;;;5033715;28;20037;-32
2022/04/18 08:32:12;;;;;;;3.20;2.90;;;10.00;60.60;;;;;;5029444;28;20406;-33
2022/04/18 08:34:38;;;;;;;3.38;2.95;;;10.00;54.60;;;;;;5033915;28;20104;-33
2022/04/18 08:37:04;;;;;;;3.67;2.72;;;10.00;58.30;;;;;;5034244;28;20497;-33
2022/04/18 08:39:31;;;;;;;5.53;2.95;;;10.10;56.50;;;;;;5037485;28;20052;-33
2022/04/18 08:41:59;;;;;;;3.65;2.88;;;10.40;55.60;;;;;;5038171;28;20039;-34
2022/04/18 08:44:29;;;;;;;2.65;2.45;;;10.30;55.00;;;;;;5035579;28;20040;-33
2022/04/18 08:46:58;;;;;;;5.15;3.40;;;10.30;57.90;;;;;;5034711;28;20037;-33
2022/04/18 08:54:53;;;;;;;3.22;2.65;;;10.60;54.10;;;;;;5032261;28;20102;-33
2022/04/18 08:57:19;;;;;;;2.97;2.30;;;10.40;49.30;;;;;;5036522;28;20040;-32
2022/04/18 08:59:45;;;;;;;4.75;2.47;;;10.30;48.60;;;;;;5037449;28;20025;-32
2022/04/18 09:02:10;;;;;;;3.92;2.38;;;10.40;50.40;;;;;;5038110;28;20504;-32
2022/04/18 09:04:36;;;;;;;4.10;2.42;;;10.40;47.90;;;;;;5038912;28;20036;-32
2022/04/18 09:07:12;;;;;;;4.45;2.83;;;10.50;47.60;;;;;;5040176;28;20098;-33
2022/04/18 09:09:39;;;;;;;2.78;2.05;;;10.70;49.50;;;;;;5036356;28;20116;-33
2022/04/18 09:12:21;;;;;;;4.45;2.72;;;10.70;50.20;;;;;;5035979;28;20037;-32
2022/04/18 09:14:48;;;;;;;3.75;2.58;;;10.70;46.30;;;;;;5037553;28;20367;-33
2022/04/18 09:17:30;;;;;;;3.20;2.10;;;10.90;49.20;;;;;;5038185;28;20948;-32
2022/04/18 09:20:07;;;;;;;3.47;2.30;;;10.80;47.90;;;;;;5051448;28;20084;-32
2022/04/18 09:22:48;;;;;;;3.90;2.38;;;10.90;46.50;;;;;;5038197;28;20470;-33
2022/04/18 09:25:21;;;;;;;3.22;2.28;;;11.00;45.70;;;;;;5039066;28;20025;-33
2022/04/18 09:27:56;;;;;;;5.63;2.65;;;11.00;44.20;;;;;;5036388;28;20033;-32
2022/04/18 09:30:23;;;;;;;2.55;2.33;;;11.00;44.20;;;;;;5037194;28;20076;-32
2022/04/18 09:33:09;;;;;;;2.42;2.17;;;11.10;44.70;;;;;;5036731;28;20049;-32
2022/04/18 09:35:35;;;;;;;2.53;2.30;;;11.20;46.60;;;;;;5036566;28;20060;-32
2022/04/18 09:38:06;;;;;;;3.63;2.20;;;11.10;45.80;;;;;;5043436;28;20025;-33
2022/04/18 09:40:37;;;;;;;5.40;2.10;;;11.40;49.20;;;;;;5039280;28;20014;-32
2022/04/18 09:43:03;;;;;;;3.85;2.40;;;11.30;44.30;;;;;;5041559;28;20557;-32
2022/04/18 09:45:29;;;;;;;3.15;2.30;;;11.10;44.20;;;;;;5038097;28;20581;-32
2022/04/18 09:47:57;;;;;;;2.53;2.08;;;11.30;46.00;;;;;;5038053;28;20482;-32
2022/04/18 09:53:17;;;;;;;;;;;11.10;45.40;;;;;;5036844;28;20109;-32
2022/04/18 09:55:54;;;;;;;1.98;1.80;;;11.10;43.50;;;;;;5034880;28;19954;-32
2022/04/18 09:58:21;;;;;;;2.00;1.90;;;11.20;43.20;;;;;;5035843;28;20017;-32
2022/04/18 10:00:48;;;;;;;2.03;1.92;;;11.30;44.50;;;;;;5036747;28;20039;-32
2022/04/18 10:03:14;;;;;;;3.08;1.90;;;11.50;46.40;;;;;;5034927;28;20156;-32
2022/04/18 10:05:40;;;;;;;2.00;1.63;;;11.40;44.80;;;;;;5037978;28;20475;-33
2022/04/18 10:08:06;;;;;;;3.17;1.90;;;11.40;42.20;;;;;;5038176;28;20060;-32
2022/04/18 10:10:40;;;;;;;2.65;1.92;;;11.40;46.50;;;;;;5035387;28;20037;-33
2022/04/18 10:13:09;;;;;;;2.63;1.88;;;11.70;44.30;;;;;;5035711;28;20033;-33
2022/04/18 10:15:37;;;;;;;3.17;2.13;;;11.60;47.70;;;;;;5036445;28;20104;-32
2022/04/18 10:18:05;;;;;;;5.27;2.63;;;11.50;44.20;;;;;;5034047;28;20075;-33
2022/04/18 10:20:39;;;;;;;2.90;2.20;;;11.80;43.80;;;;;;5035000;28;20029;-32
2022/04/18 10:23:39;;;;;;;2.70;2.13;;;11.50;42.80;;;;;;5037279;28;20461;-33
2022/04/18 10:26:33;;;;;;;3.55;2.50;;;11.60;49.80;;;;;;5034126;28;20033;-33
2022/04/18 10:29:04;;;;;;;2.17;1.98;;;12.30;45.60;;;;;;5035206;28;20553;-32
2022/04/18 10:31:34;;;;;;;1.65;1.55;;;12.10;46.60;;;;;;5038719;28;20048;-32
2022/04/18 10:34:00;;;;;;;2.75;1.90;;;11.90;43.10;;;;;;5034682;28;20151;-33
2022/04/18 10:36:28;;;;;;;3.50;2.22;;;12.00;46.50;;;;;;5033460;28;20352;-33
2022/04/18 10:39:07;;;;;;;5.88;2.22;;;12.00;44.20;;;;;;5037096;28;20112;-32
2022/04/18 10:41:46;;;;;;;3.92;2.10;;;12.10;43.90;;;;;;5035799;28;20375;-33
2022/04/18 10:44:13;;;;;;;2.78;2.10;;;12.10;49.10;;;;;;5033153;28;20490;-32
2022/04/18 10:46:53;;;;;;;2.40;1.88;;;12.00;42.80;;;;;;5033503;28;21671;-32
2022/04/18 10:49:21;;;;;;;3.03;2.22;;;12.00;49.70;;;;;;5036010;28;20485;-32
2022/04/18 10:51:48;;;;;;;2.42;2.08;;;12.00;47.20;;;;;;5034773;28;20385;-32
2022/04/18 10:54:20;;;;;;;3.05;2.50;;;12.30;48.00;;;;;;5038036;28;20032;-33
2022/04/18 10:56:52;;;;;;;3.25;2.10;;;12.40;48.60;;;;;;5049728;28;20575;-32
2022/04/18 10:59:20;;;;;;;3.45;2.28;;;12.50;42.40;;;;;;5036531;28;20695;-33
2022/04/18 11:01:46;;;;;;;3.58;2.10;;;12.60;49.50;;;;;;5031510;28;20044;-32
2022/04/18 11:04:13;;;;;;;3.03;2.10;;;12.70;43.70;;;;;;5035266;28;20599;-33
2022/04/18 11:06:39;;;;;;;2.38;2.17;;;12.70;42.00;;;;;;5033686;28;20103;-33
2022/04/18 11:09:09;;;;;;;2.30;2.10;;;13.00;44.80;;;;;;5029936;28;20055;-34
2022/04/18 11:11:43;;;;;;;4.32;1.65;;;12.90;41.90;;;;;;5035229;28;20561;-32
2022/04/18 11:14:26;;;;;;;2.40;1.52;;;12.80;42.50;;;;;;5035132;28;20028;-34
2022/04/18 11:16:57;;;;;;;2.22;1.70;;;12.90;47.20;;;;;;5035610;28;20025;-32
2022/04/18 11:19:28;;;;;;;2.05;1.85;;;12.90;49.20;;;;;;5037935;28;20082;-33
2022/04/18 11:21:58;;;;;;;2.33;1.75;;;12.80;45.20;;;;;;5041977;28;20949;-32
2022/04/18 11:24:52;;;;;;;2.55;2.30;;;13.00;53.10;;;;;;5040511;28;20061;-33
2022/04/18 11:27:23;;;;;;;4.53;1.65;;;12.90;51.20;;;;;;5019981;28;20477;-32
2022/04/18 11:30:12;;;;;;;3.15;1.58;;;12.90;49.80;;;;;;5034807;28;20051;-33
2022/04/18 11:32:45;;;;;;;2.00;1.45;;;13.00;50.50;;;;;;5040944;28;20111;-33
2022/04/18 11:35:12;;;;;;;10.43;1.88;;;12.90;49.80;;;;;;5040076;28;20052;-33
2022/04/18 11:37:40;;;;;;;2.10;1.85;;;12.90;50.70;;;;;;5034105;28;20025;-33
2022/04/18 11:40:07;;;;;;;;;;;13.00;46.60;;;;;;5038820;28;20013;-33
2022/04/18 11:42:34;;;;;;;2.60;1.75;;;13.10;49.50;;;;;;5035631;28;19923;-32
2022/04/18 11:45:03;;;;;;;3.03;1.92;;;13.00;46.40;;;;;;5035228;28;20041;-33
2022/04/18 11:47:37;;;;;;;2.33;1.80;;;13.00;43.50;;;;;;5036855;28;20167;-32
2022/04/18 11:50:04;;;;;;;1.92;1.70;;;13.00;40.70;;;;;;5034028;28;20059;-34
2022/04/18 11:52:32;;;;;;;1.90;1.70;;;12.90;40.90;;;;;;5036717;28;20025;-32
2022/04/18 11:55:14;;;;;;;1.83;1.48;;;13.20;40.60;;;;;;5037353;28;20040;-34
2022/04/18 11:57:42;;;;;;;1.63;1.52;;;12.90;42.90;;;;;;5039366;28;20034;-32
2022/04/18 12:00:11;;;;;;;1.65;1.55;;;13.10;42.90;;;;;;5035166;28;20060;-32
2022/04/18 12:08:10;;;;;;;2.33;1.80;;;13.40;43.60;;;;;;5039122;28;20051;-32
2022/04/18 12:10:39;;;;;;;2.47;1.90;;;13.30;43.60;;;;;;5035367;28;20435;-32
2022/04/18 12:13:07;;;;;;;1.85;1.42;;;13.30;41.20;;;;;;5039954;28;20036;-33
2022/04/18 12:15:34;;;;;;;3.30;1.73;;;13.30;40.70;;;;;;5032286;28;20432;-31
2022/04/18 12:18:11;;;;;;;1.95;1.52;;;13.20;43.20;;;;;;5033738;28;20130;-32
2022/04/18 12:20:50;;;;;;;2.03;1.50;;;13.20;38.80;;;;;;5035399;28;20024;-32
2022/04/18 12:23:23;;;;;;;1.63;1.33;;;13.40;38.90;;;;;;5038110;28;20036;-32
2022/04/18 12:25:52;;;;;;;1.88;1.40;;;13.60;44.50;;;;;;5034316;28;20485;-32
2022/04/18 12:28:25;;;;;;;2.88;1.80;;;13.50;40.00;;;;;;5035261;28;20109;-32
2022/04/18 12:30:51;;;;;;;3.13;1.95;;;13.70;39.20;;;;;;5027098;28;20057;-32
2022/04/18 12:33:22;;;;;;;1.55;1.45;;;13.60;40.00;;;;;;5032555;28;20381;-32
2022/04/18 12:35:51;;;;;;;2.08;1.60;;;13.30;40.30;;;;;;5030171;28;20039;-32
2022/04/18 12:38:18;;;;;;;2.67;1.58;;;13.60;40.40;;;;;;5033358;28;20068;-32
2022/04/18 12:41:03;;;;;;;2.90;2.13;;;13.70;42.80;;;;;;5032507;28;20033;-33
2022/04/18 12:43:30;;;;;;;3.05;1.50;;;13.70;38.80;;;;;;5032806;28;20047;-32
2022/04/18 12:45:57;;;;;;;1.90;1.70;;;13.50;39.10;;;;;;5033041;28;20029;-32
2022/04/18 12:48:29;;;;;;;1.80;1.25;;;13.50;37.50;;;;;;5033664;28;20068;-32
2022/04/18 12:50:56;;;;;;;1.88;1.65;;;13.70;40.70;;;;;;5029364;28;20040;-32
2022/04/18 12:53:42;;;;;;;2.08;1.65;;;13.60;39.10;;;;;;5032246;28;20044;-32
2022/04/18 12:56:07;;;;;;;2.30;1.60;;;13.70;45.40;;;;;;5030892;28;20036;-32
2022/04/18 12:58:41;;;;;;;1.92;1.73;;;13.60;41.40;;;;;;5033346;28;20414;-32
2022/04/18 13:01:07;;;;;;;1.70;1.58;;;13.60;39.60;;;;;;5034562;28;20064;-32
2022/04/18 13:03:44;;;;;;;3.20;1.98;;;13.90;40.40;;;;;;5032287;28;20528;-32
2022/04/18 13:06:10;;;;;;;3.40;1.80;;;13.60;40.60;;;;;;5033986;28;20508;-32
2022/04/18 13:08:40;;;;;;;2.00;1.80;;;13.70;38.80;;;;;;5031761;28;20501;-32
2022/04/18 13:11:07;;;;;;;2.03;1.58;;;13.60;43.70;;;;;;5033582;28;20033;-32
2022/04/18 13:13:33;;;;;;;2.33;1.73;;;13.80;40.50;;;;;;5033944;28;20059;-32
2022/04/18 13:16:22;;;;;;;1.85;1.67;;;13.70;41.10;;;;;;5033411;28;20763;-32
2022/04/18 13:18:57;;;;;;;1.65;1.55;;;13.90;40.20;;;;;;5031610;28;20478;-32
2022/04/18 13:21:23;;;;;;;1.65;1.30;;;13.90;39.30;;;;;;5031512;28;20498;-32
2022/04/18 13:23:48;;;;;;;2.03;1.40;;;14.20;43.10;;;;;;5031526;28;20037;-32
2022/04/18 13:26:14;;;;;;;2.03;1.90;;;14.20;41.50;;;;;;5032670;28;20033;-32
2022/04/18 13:28:39;;;;;;;2.55;1.60;;;13.70;37.80;;;;;;5033122;28;20829;-32